sensor_id;sensor_type;location;lat;lon;timestamp;temperature;humidity
57857;DHT22;43683;48.650;9.290;2022-08-01T00:00:23;16.80;66.80
57857;DHT22;43683;48.650;9.290;2022-08-01T00:02:49;16.70;67.20
57857;DHT22;43683;48.650;9.290;2022-08-01T00:05:15;16.60;67.40
57857;DHT22;43683;48.650;9.290;2022-08-01T00:07:40;16.50;67.70
57857;DHT22;43683;48.650;9.290;2022-08-01T00:10:08;16.40;68.00
57857;DHT22;43683;48.650;9.290;2022-08-01T00:12:34;16.40;68.30
57857;DHT22;43683;48.650;9.290;2022-08-01T00:14:59;16.30;68.10
57857;DHT22;43683;48.650;9.290;2022-08-01T00:17:25;16.30;68.20
57857;DHT22;43683;48.650;9.290;2022-08-01T00:19:51;16.30;68.20
57857;DHT22;43683;48.650;9.290;2022-08-01T00:22:17;16.40;68.10
57857;DHT22;43683;48.650;9.290;2022-08-01T00:24:42;16.40;68.10
57857;DHT22;43683;48.650;9.290;2022-08-01T00:27:08;16.40;68.00
57857;DHT22;43683;48.650;9.290;2022-08-01T00:29:33;16.50;67.80
57857;DHT22;43683;48.650;9.290;2022-08-01T00:31:59;16.50;67.70
57857;DHT22;43683;48.650;9.290;2022-08-01T00:34:25;16.50;67.70
57857;DHT22;43683;48.650;9.290;2022-08-01T00:36:50;16.50;67.90
57857;DHT22;43683;48.650;9.290;2022-08-01T00:39:16;16.50;68.10
57857;DHT22;43683;48.650;9.290;2022-08-01T00:41:41;16.50;68.10
57857;DHT22;43683;48.650;9.290;2022-08-01T00:44:07;16.40;68.10
57857;DHT22;43683;48.650;9.290;2022-08-01T00:46:33;16.40;68.40
57857;DHT22;43683;48.650;9.290;2022-08-01T00:48:59;16.30;68.70
57857;DHT22;43683;48.650;9.290;2022-08-01T00:51:26;16.30;69.00
57857;DHT22;43683;48.650;9.290;2022-08-01T00:53:52;16.20;69.10
57857;DHT22;43683;48.650;9.290;2022-08-01T00:56:20;16.20;69.30
57857;DHT22;43683;48.650;9.290;2022-08-01T00:58:45;16.20;69.40
57857;DHT22;43683;48.650;9.290;2022-08-01T01:01:11;16.10;69.30
57857;DHT22;43683;48.650;9.290;2022-08-01T01:03:36;16.10;69.40
57857;DHT22;43683;48.650;9.290;2022-08-01T01:06:31;16.10;69.60
57857;DHT22;43683;48.650;9.290;2022-08-01T01:09:03;16.00;69.80
57857;DHT22;43683;48.650;9.290;2022-08-01T01:11:56;16.00;69.70
57857;DHT22;43683;48.650;9.290;2022-08-01T01:14:33;16.00;69.90
57857;DHT22;43683;48.650;9.290;2022-08-01T01:17:06;16.00;69.90
57857;DHT22;43683;48.650;9.290;2022-08-01T01:19:38;16.00;69.80
57857;DHT22;43683;48.650;9.290;2022-08-01T01:24:52;15.90;70.20
57857;DHT22;43683;48.650;9.290;2022-08-01T01:28:17;15.90;70.50
57857;DHT22;43683;48.650;9.290;2022-08-01T01:30:21;15.80;70.60
57857;DHT22;43683;48.650;9.290;2022-08-01T01:32:50;15.80;70.60
57857;DHT22;43683;48.650;9.290;2022-08-01T01:35:28;15.70;71.00
57857;DHT22;43683;48.650;9.290;2022-08-01T01:38:00;15.70;71.60
57857;DHT22;43683;48.650;9.290;2022-08-01T01:40:27;15.60;71.60
57857;DHT22;43683;48.650;9.290;2022-08-01T01:42:55;15.60;71.60
57857;DHT22;43683;48.650;9.290;2022-08-01T01:45:23;15.50;71.80
57857;DHT22;43683;48.650;9.290;2022-08-01T01:47:50;15.50;72.10
57857;DHT22;43683;48.650;9.290;2022-08-01T01:50:17;15.50;72.20
57857;DHT22;43683;48.650;9.290;2022-08-01T01:52:45;15.50;72.10
57857;DHT22;43683;48.650;9.290;2022-08-01T01:55:12;15.50;72.20
57857;DHT22;43683;48.650;9.290;2022-08-01T01:57:41;15.50;72.30
57857;DHT22;43683;48.650;9.290;2022-08-01T02:00:08;15.50;72.50
57857;DHT22;43683;48.650;9.290;2022-08-01T02:02:36;15.50;72.50
57857;DHT22;43683;48.650;9.290;2022-08-01T02:05:02;15.40;72.70
57857;DHT22;43683;48.650;9.290;2022-08-01T02:07:29;15.40;72.70
57857;DHT22;43683;48.650;9.290;2022-08-01T02:09:56;15.40;73.00
57857;DHT22;43683;48.650;9.290;2022-08-01T02:12:24;15.40;73.10
57857;DHT22;43683;48.650;9.290;2022-08-01T02:14:50;15.30;73.20
57857;DHT22;43683;48.650;9.290;2022-08-01T02:17:19;15.30;73.50
57857;DHT22;43683;48.650;9.290;2022-08-01T02:19:46;15.30;73.90
57857;DHT22;43683;48.650;9.290;2022-08-01T02:22:36;15.20;74.00
57857;DHT22;43683;48.650;9.290;2022-08-01T02:27:40;15.10;74.50
57857;DHT22;43683;48.650;9.290;2022-08-01T02:30:08;15.00;75.60
57857;DHT22;43683;48.650;9.290;2022-08-01T02:32:41;15.00;74.80
57857;DHT22;43683;48.650;9.290;2022-08-01T02:35:13;15.00;75.20
57857;DHT22;43683;48.650;9.290;2022-08-01T02:37:44;15.00;75.20
57857;DHT22;43683;48.650;9.290;2022-08-01T02:40:12;15.00;75.10
57857;DHT22;43683;48.650;9.290;2022-08-01T02:42:38;14.90;75.40
57857;DHT22;43683;48.650;9.290;2022-08-01T02:45:07;14.90;75.60
57857;DHT22;43683;48.650;9.290;2022-08-01T02:47:35;14.90;75.80
57857;DHT22;43683;48.650;9.290;2022-08-01T02:50:01;14.90;75.80
57857;DHT22;43683;48.650;9.290;2022-08-01T02:52:28;14.90;75.90
57857;DHT22;43683;48.650;9.290;2022-08-01T02:54:55;14.90;76.20
57857;DHT22;43683;48.650;9.290;2022-08-01T02:57:23;15.00;76.00
57857;DHT22;43683;48.650;9.290;2022-08-01T02:59:50;15.00;75.90
57857;DHT22;43683;48.650;9.290;2022-08-01T03:02:17;15.00;76.10
57857;DHT22;43683;48.650;9.290;2022-08-01T03:04:44;14.90;76.30
57857;DHT22;43683;48.650;9.290;2022-08-01T03:07:10;14.90;76.50
57857;DHT22;43683;48.650;9.290;2022-08-01T03:09:39;14.90;76.60
57857;DHT22;43683;48.650;9.290;2022-08-01T03:12:11;14.90;77.00
57857;DHT22;43683;48.650;9.290;2022-08-01T03:14:40;14.80;77.20
57857;DHT22;43683;48.650;9.290;2022-08-01T03:17:08;14.80;77.20
57857;DHT22;43683;48.650;9.290;2022-08-01T03:19:35;14.80;77.40
57857;DHT22;43683;48.650;9.290;2022-08-01T03:22:06;14.80;77.50
57857;DHT22;43683;48.650;9.290;2022-08-01T03:24:33;14.80;77.80
57857;DHT22;43683;48.650;9.290;2022-08-01T03:27:00;14.70;77.80
57857;DHT22;43683;48.650;9.290;2022-08-01T03:29:28;14.70;78.10
57857;DHT22;43683;48.650;9.290;2022-08-01T03:31:56;14.70;78.40
57857;DHT22;43683;48.650;9.290;2022-08-01T03:34:22;14.60;78.60
57857;DHT22;43683;48.650;9.290;2022-08-01T03:39:22;14.50;79.20
57857;DHT22;43683;48.650;9.290;2022-08-01T03:41:55;14.60;79.30
57857;DHT22;43683;48.650;9.290;2022-08-01T03:44:25;14.60;79.50
57857;DHT22;43683;48.650;9.290;2022-08-01T03:46:58;14.50;79.50
57857;DHT22;43683;48.650;9.290;2022-08-01T03:49:29;14.50;79.80
57857;DHT22;43683;48.650;9.290;2022-08-01T03:51:55;14.50;79.80
57857;DHT22;43683;48.650;9.290;2022-08-01T03:54:24;14.50;79.80
57857;DHT22;43683;48.650;9.290;2022-08-01T03:56:51;14.50;80.00
57857;DHT22;43683;48.650;9.290;2022-08-01T03:59:18;14.40;80.10
57857;DHT22;43683;48.650;9.290;2022-08-01T04:01:45;14.50;80.30
57857;DHT22;43683;48.650;9.290;2022-08-01T04:04:12;14.50;80.30
57857;DHT22;43683;48.650;9.290;2022-08-01T04:06:38;14.50;80.20
57857;DHT22;43683;48.650;9.290;2022-08-01T04:09:04;14.60;80.20
57857;DHT22;43683;48.650;9.290;2022-08-01T04:11:30;14.60;80.20
57857;DHT22;43683;48.650;9.290;2022-08-01T04:13:56;14.70;80.20
57857;DHT22;43683;48.650;9.290;2022-08-01T04:16:22;14.70;80.20
57857;DHT22;43683;48.650;9.290;2022-08-01T04:18:48;14.80;80.00
57857;DHT22;43683;48.650;9.290;2022-08-01T04:21:18;14.80;80.00
57857;DHT22;43683;48.650;9.290;2022-08-01T04:23:44;14.80;80.10
57857;DHT22;43683;48.650;9.290;2022-08-01T04:26:12;14.80;80.10
57857;DHT22;43683;48.650;9.290;2022-08-01T04:28:40;14.90;80.10
57857;DHT22;43683;48.650;9.290;2022-08-01T04:31:09;14.90;80.00
57857;DHT22;43683;48.650;9.290;2022-08-01T04:33:40;15.00;80.00
57857;DHT22;43683;48.650;9.290;2022-08-01T04:36:09;15.10;79.80
57857;DHT22;43683;48.650;9.290;2022-08-01T04:38:36;15.10;79.60
57857;DHT22;43683;48.650;9.290;2022-08-01T04:41:03;15.30;79.60
57857;DHT22;43683;48.650;9.290;2022-08-01T04:43:31;15.30;79.20
57857;DHT22;43683;48.650;9.290;2022-08-01T04:45:58;15.50;79.20
57857;DHT22;43683;48.650;9.290;2022-08-01T04:48:24;15.40;79.10
57857;DHT22;43683;48.650;9.290;2022-08-01T04:50:51;15.50;79.20
57857;DHT22;43683;48.650;9.290;2022-08-01T04:53:18;15.60;79.20
57857;DHT22;43683;48.650;9.290;2022-08-01T04:55:44;15.60;79.20
57857;DHT22;43683;48.650;9.290;2022-08-01T04:58:11;15.70;78.60
57857;DHT22;43683;48.650;9.290;2022-08-01T05:00:37;15.70;78.70
57857;DHT22;43683;48.650;9.290;2022-08-01T05:03:03;15.70;78.90
57857;DHT22;43683;48.650;9.290;2022-08-01T05:05:29;15.70;79.20
57857;DHT22;43683;48.650;9.290;2022-08-01T05:07:55;15.70;79.40
57857;DHT22;43683;48.650;9.290;2022-08-01T05:10:21;15.70;79.60
57857;DHT22;43683;48.650;9.290;2022-08-01T05:12:47;15.70;79.70
57857;DHT22;43683;48.650;9.290;2022-08-01T05:15:12;15.70;79.70
57857;DHT22;43683;48.650;9.290;2022-08-01T05:17:38;15.70;79.70
57857;DHT22;43683;48.650;9.290;2022-08-01T05:20:04;15.80;79.60
57857;DHT22;43683;48.650;9.290;2022-08-01T05:22:31;15.90;79.30
57857;DHT22;43683;48.650;9.290;2022-08-01T05:24:57;16.00;79.10
57857;DHT22;43683;48.650;9.290;2022-08-01T05:27:22;16.20;78.80
57857;DHT22;43683;48.650;9.290;2022-08-01T05:29:48;16.30;78.30
57857;DHT22;43683;48.650;9.290;2022-08-01T05:32:13;16.60;77.90
57857;DHT22;43683;48.650;9.290;2022-08-01T05:34:39;16.80;77.30
57857;DHT22;43683;48.650;9.290;2022-08-01T05:37:04;17.00;76.70
57857;DHT22;43683;48.650;9.290;2022-08-01T05:39:30;17.30;76.30
57857;DHT22;43683;48.650;9.290;2022-08-01T05:41:56;17.40;76.00
57857;DHT22;43683;48.650;9.290;2022-08-01T05:44:21;17.60;75.80
57857;DHT22;43683;48.650;9.290;2022-08-01T05:46:47;17.60;75.90
57857;DHT22;43683;48.650;9.290;2022-08-01T05:49:12;17.60;76.20
57857;DHT22;43683;48.650;9.290;2022-08-01T05:51:38;17.50;76.40
57857;DHT22;43683;48.650;9.290;2022-08-01T05:54:04;17.50;76.70
57857;DHT22;43683;48.650;9.290;2022-08-01T05:56:29;17.60;76.70
57857;DHT22;43683;48.650;9.290;2022-08-01T05:58:55;17.70;76.30
57857;DHT22;43683;48.650;9.290;2022-08-01T06:01:20;17.80;75.90
57857;DHT22;43683;48.650;9.290;2022-08-01T06:03:46;17.90;75.50
57857;DHT22;43683;48.650;9.290;2022-08-01T06:06:12;18.10;75.10
57857;DHT22;43683;48.650;9.290;2022-08-01T06:08:39;18.50;74.40
57857;DHT22;43683;48.650;9.290;2022-08-01T06:11:05;19.40;72.00
57857;DHT22;43683;48.650;9.290;2022-08-01T06:13:30;20.60;69.00
57857;DHT22;43683;48.650;9.290;2022-08-01T06:15:56;21.50;66.60
57857;DHT22;43683;48.650;9.290;2022-08-01T06:18:21;22.30;65.20
57857;DHT22;43683;48.650;9.290;2022-08-01T06:20:47;22.80;63.10
57857;DHT22;43683;48.650;9.290;2022-08-01T06:23:12;23.30;62.10
57857;DHT22;43683;48.650;9.290;2022-08-01T06:25:40;23.40;61.80
57857;DHT22;43683;48.650;9.290;2022-08-01T06:28:06;23.70;62.00
57857;DHT22;43683;48.650;9.290;2022-08-01T06:30:31;23.90;60.60
57857;DHT22;43683;48.650;9.290;2022-08-01T06:32:57;24.00;60.50
57857;DHT22;43683;48.650;9.290;2022-08-01T06:35:24;24.10;60.10
57857;DHT22;43683;48.650;9.290;2022-08-01T06:37:49;24.40;59.70
57857;DHT22;43683;48.650;9.290;2022-08-01T06:40:15;24.30;59.60
57857;DHT22;43683;48.650;9.290;2022-08-01T06:42:41;24.00;60.30
57857;DHT22;43683;48.650;9.290;2022-08-01T06:45:10;23.70;61.00
57857;DHT22;43683;48.650;9.290;2022-08-01T06:47:37;23.70;61.20
57857;DHT22;43683;48.650;9.290;2022-08-01T06:50:04;24.00;60.40
57857;DHT22;43683;48.650;9.290;2022-08-01T06:52:31;24.30;60.10
57857;DHT22;43683;48.650;9.290;2022-08-01T06:54:56;24.60;59.40
57857;DHT22;43683;48.650;9.290;2022-08-01T06:57:22;24.70;59.10
57857;DHT22;43683;48.650;9.290;2022-08-01T06:59:48;24.40;59.90
57857;DHT22;43683;48.650;9.290;2022-08-01T07:02:14;24.30;60.80
57857;DHT22;43683;48.650;9.290;2022-08-01T07:04:39;24.20;60.90
57857;DHT22;43683;48.650;9.290;2022-08-01T07:07:05;24.20;61.30
57857;DHT22;43683;48.650;9.290;2022-08-01T07:09:30;24.00;61.90
57857;DHT22;43683;48.650;9.290;2022-08-01T07:12:00;24.00;61.90
57857;DHT22;43683;48.650;9.290;2022-08-01T07:14:26;24.00;62.10
57857;DHT22;43683;48.650;9.290;2022-08-01T07:16:53;24.00;62.00
57857;DHT22;43683;48.650;9.290;2022-08-01T07:19:19;24.00;62.00
57857;DHT22;43683;48.650;9.290;2022-08-01T07:21:45;24.00;61.80
57857;DHT22;43683;48.650;9.290;2022-08-01T07:24:13;24.10;61.60
57857;DHT22;43683;48.650;9.290;2022-08-01T07:26:42;24.20;61.60
57857;DHT22;43683;48.650;9.290;2022-08-01T07:29:07;24.30;61.20
57857;DHT22;43683;48.650;9.290;2022-08-01T07:31:33;24.30;61.30
57857;DHT22;43683;48.650;9.290;2022-08-01T07:33:58;24.40;60.70
57857;DHT22;43683;48.650;9.290;2022-08-01T07:36:24;24.50;60.70
57857;DHT22;43683;48.650;9.290;2022-08-01T07:38:49;24.60;60.50
57857;DHT22;43683;48.650;9.290;2022-08-01T07:41:15;24.80;60.20
57857;DHT22;43683;48.650;9.290;2022-08-01T07:43:40;24.90;60.10
57857;DHT22;43683;48.650;9.290;2022-08-01T07:46:06;25.00;59.90
57857;DHT22;43683;48.650;9.290;2022-08-01T07:48:32;25.20;59.70
57857;DHT22;43683;48.650;9.290;2022-08-01T07:50:58;25.30;59.10
57857;DHT22;43683;48.650;9.290;2022-08-01T07:53:23;25.50;58.80
57857;DHT22;43683;48.650;9.290;2022-08-01T07:55:49;25.50;58.60
57857;DHT22;43683;48.650;9.290;2022-08-01T07:58:15;25.60;58.10
57857;DHT22;43683;48.650;9.290;2022-08-01T08:00:41;25.60;57.70
57857;DHT22;43683;48.650;9.290;2022-08-01T08:03:06;25.70;57.30
57857;DHT22;43683;48.650;9.290;2022-08-01T08:05:32;25.90;56.70
57857;DHT22;43683;48.650;9.290;2022-08-01T08:08:07;26.20;56.30
57857;DHT22;43683;48.650;9.290;2022-08-01T08:10:33;26.40;55.60
57857;DHT22;43683;48.650;9.290;2022-08-01T08:13:00;26.60;55.60
57857;DHT22;43683;48.650;9.290;2022-08-01T08:15:27;26.80;55.80
57857;DHT22;43683;48.650;9.290;2022-08-01T08:17:52;27.20;55.30
57857;DHT22;43683;48.650;9.290;2022-08-01T08:20:18;27.60;55.50
57857;DHT22;43683;48.650;9.290;2022-08-01T08:22:44;27.90;54.00
57857;DHT22;43683;48.650;9.290;2022-08-01T08:25:09;28.10;53.20
57857;DHT22;43683;48.650;9.290;2022-08-01T08:27:36;27.90;52.90
57857;DHT22;43683;48.650;9.290;2022-08-01T08:30:03;27.80;53.60
57857;DHT22;43683;48.650;9.290;2022-08-01T08:32:32;27.80;53.40
57857;DHT22;43683;48.650;9.290;2022-08-01T08:34:58;27.90;53.00
57857;DHT22;43683;48.650;9.290;2022-08-01T08:37:23;28.20;52.50
57857;DHT22;43683;48.650;9.290;2022-08-01T08:39:49;28.60;52.00
57857;DHT22;43683;48.650;9.290;2022-08-01T08:42:14;28.60;51.20
57857;DHT22;43683;48.650;9.290;2022-08-01T08:44:41;28.40;51.00
57857;DHT22;43683;48.650;9.290;2022-08-01T08:47:07;28.20;50.90
57857;DHT22;43683;48.650;9.290;2022-08-01T08:49:34;28.40;50.50
57857;DHT22;43683;48.650;9.290;2022-08-01T08:52:01;28.90;50.20
57857;DHT22;43683;48.650;9.290;2022-08-01T08:54:28;29.10;49.50
57857;DHT22;43683;48.650;9.290;2022-08-01T08:56:55;29.20;49.10
57857;DHT22;43683;48.650;9.290;2022-08-01T08:59:21;29.30;48.60
57857;DHT22;43683;48.650;9.290;2022-08-01T09:01:49;29.30;48.30
57857;DHT22;43683;48.650;9.290;2022-08-01T09:04:15;28.90;48.40
57857;DHT22;43683;48.650;9.290;2022-08-01T09:06:41;28.80;48.50
57857;DHT22;43683;48.650;9.290;2022-08-01T09:09:08;29.10;48.10
57857;DHT22;43683;48.650;9.290;2022-08-01T09:11:34;29.50;47.30
57857;DHT22;43683;48.650;9.290;2022-08-01T09:14:03;29.90;46.60
57857;DHT22;43683;48.650;9.290;2022-08-01T09:16:30;29.90;46.80
57857;DHT22;43683;48.650;9.290;2022-08-01T09:19:10;30.10;46.70
57857;DHT22;43683;48.650;9.290;2022-08-01T09:21:37;30.00;46.20
57857;DHT22;43683;48.650;9.290;2022-08-01T09:24:03;30.10;46.00
57857;DHT22;43683;48.650;9.290;2022-08-01T09:26:35;30.00;45.80
57857;DHT22;43683;48.650;9.290;2022-08-01T09:29:06;29.50;45.70
57857;DHT22;43683;48.650;9.290;2022-08-01T09:31:43;29.30;46.00
57857;DHT22;43683;48.650;9.290;2022-08-01T09:34:09;29.50;45.50
57857;DHT22;43683;48.650;9.290;2022-08-01T09:36:51;29.20;46.30
57857;DHT22;43683;48.650;9.290;2022-08-01T09:39:19;29.10;46.00
57857;DHT22;43683;48.650;9.290;2022-08-01T09:41:46;29.30;45.60
57857;DHT22;43683;48.650;9.290;2022-08-01T09:44:12;29.80;45.30
57857;DHT22;43683;48.650;9.290;2022-08-01T09:47:04;29.40;45.40
57857;DHT22;43683;48.650;9.290;2022-08-01T09:49:38;29.00;46.60
57857;DHT22;43683;48.650;9.290;2022-08-01T09:52:19;28.60;46.30
57857;DHT22;43683;48.650;9.290;2022-08-01T09:55:05;29.10;46.70
57857;DHT22;43683;48.650;9.290;2022-08-01T09:57:31;29.40;45.30
57857;DHT22;43683;48.650;9.290;2022-08-01T09:59:59;29.50;45.10
57857;DHT22;43683;48.650;9.290;2022-08-01T10:02:38;29.40;44.90
57857;DHT22;43683;48.650;9.290;2022-08-01T10:05:09;29.00;45.60
57857;DHT22;43683;48.650;9.290;2022-08-01T10:07:36;28.60;45.80
57857;DHT22;43683;48.650;9.290;2022-08-01T10:10:19;28.40;46.00
57857;DHT22;43683;48.650;9.290;2022-08-01T10:12:45;28.10;46.50
57857;DHT22;43683;48.650;9.290;2022-08-01T10:15:15;27.80;47.00
57857;DHT22;43683;48.650;9.290;2022-08-01T10:17:46;28.40;46.00
57857;DHT22;43683;48.650;9.290;2022-08-01T10:20:16;29.20;45.20
57857;DHT22;43683;48.650;9.290;2022-08-01T10:22:42;29.80;43.70
57857;DHT22;43683;48.650;9.290;2022-08-01T10:25:09;30.40;43.50
57857;DHT22;43683;48.650;9.290;2022-08-01T10:27:36;31.20;42.90
57857;DHT22;43683;48.650;9.290;2022-08-01T10:30:04;31.70;42.70
57857;DHT22;43683;48.650;9.290;2022-08-01T10:32:31;32.20;41.80
57857;DHT22;43683;48.650;9.290;2022-08-01T10:34:57;32.20;41.20
57857;DHT22;43683;48.650;9.290;2022-08-01T10:37:24;31.60;41.70
57857;DHT22;43683;48.650;9.290;2022-08-01T10:39:51;30.50;42.90
57857;DHT22;43683;48.650;9.290;2022-08-01T10:42:18;29.60;43.90
57857;DHT22;43683;48.650;9.290;2022-08-01T10:44:44;28.70;44.90
57857;DHT22;43683;48.650;9.290;2022-08-01T10:47:27;28.10;45.70
57857;DHT22;43683;48.650;9.290;2022-08-01T10:50:04;27.70;46.50
57857;DHT22;43683;48.650;9.290;2022-08-01T10:52:32;27.30;47.80
57857;DHT22;43683;48.650;9.290;2022-08-01T10:55:07;27.00;47.50
57857;DHT22;43683;48.650;9.290;2022-08-01T11:00:09;28.30;45.90
57857;DHT22;43683;48.650;9.290;2022-08-01T11:02:34;28.90;45.10
57857;DHT22;43683;48.650;9.290;2022-08-01T11:05:17;28.80;45.00
57857;DHT22;43683;48.650;9.290;2022-08-01T11:07:51;28.40;45.50
57857;DHT22;43683;48.650;9.290;2022-08-01T11:10:40;28.40;45.70
57857;DHT22;43683;48.650;9.290;2022-08-01T11:13:08;28.90;45.20
57857;DHT22;43683;48.650;9.290;2022-08-01T11:15:37;29.70;44.20
57857;DHT22;43683;48.650;9.290;2022-08-01T11:18:28;30.60;43.20
57857;DHT22;43683;48.650;9.290;2022-08-01T11:20:56;31.20;42.30
57857;DHT22;43683;48.650;9.290;2022-08-01T11:23:23;30.80;42.50
57857;DHT22;43683;48.650;9.290;2022-08-01T11:30:49;29.00;44.60
57857;DHT22;43683;48.650;9.290;2022-08-01T11:33:16;28.60;46.00
57857;DHT22;43683;48.650;9.290;2022-08-01T11:41:15;27.70;46.00
57857;DHT22;43683;48.650;9.290;2022-08-01T11:46:55;27.50;46.40
57857;DHT22;43683;48.650;9.290;2022-08-01T11:52:09;27.40;46.70
57857;DHT22;43683;48.650;9.290;2022-08-01T11:54:37;27.50;46.70
57857;DHT22;43683;48.650;9.290;2022-08-01T11:57:09;27.40;46.70
57857;DHT22;43683;48.650;9.290;2022-08-01T11:59:43;27.40;46.70
57857;DHT22;43683;48.650;9.290;2022-08-01T12:04:57;27.40;47.00
57857;DHT22;43683;48.650;9.290;2022-08-01T12:07:24;27.40;47.00
57857;DHT22;43683;48.650;9.290;2022-08-01T12:10:04;27.40;46.90
57857;DHT22;43683;48.650;9.290;2022-08-01T12:12:34;27.40;47.00
57857;DHT22;43683;48.650;9.290;2022-08-01T12:15:08;27.30;47.10
57857;DHT22;43683;48.650;9.290;2022-08-01T12:17:42;27.20;47.00
57857;DHT22;43683;48.650;9.290;2022-08-01T12:20:10;27.30;47.10
57857;DHT22;43683;48.650;9.290;2022-08-01T12:22:36;27.20;47.00
57857;DHT22;43683;48.650;9.290;2022-08-01T12:25:16;27.20;47.40
57857;DHT22;43683;48.650;9.290;2022-08-01T12:27:44;27.20;47.40
57857;DHT22;43683;48.650;9.290;2022-08-01T12:30:12;27.20;47.20
57857;DHT22;43683;48.650;9.290;2022-08-01T12:32:39;27.30;47.20
57857;DHT22;43683;48.650;9.290;2022-08-01T12:35:14;27.40;47.00
57857;DHT22;43683;48.650;9.290;2022-08-01T12:37:44;27.50;46.90
57857;DHT22;43683;48.650;9.290;2022-08-01T12:40:31;27.50;46.80
57857;DHT22;43683;48.650;9.290;2022-08-01T12:42:59;27.60;46.80
57857;DHT22;43683;48.650;9.290;2022-08-01T12:45:27;27.60;46.50
57857;DHT22;43683;48.650;9.290;2022-08-01T12:47:54;27.70;46.30
57857;DHT22;43683;48.650;9.290;2022-08-01T12:50:23;28.10;46.10
57857;DHT22;43683;48.650;9.290;2022-08-01T12:52:49;29.00;45.50
57857;DHT22;43683;48.650;9.290;2022-08-01T12:55:17;30.30;44.10
57857;DHT22;43683;48.650;9.290;2022-08-01T12:57:46;31.20;42.80
57857;DHT22;43683;48.650;9.290;2022-08-01T13:00:22;31.80;42.20
57857;DHT22;43683;48.650;9.290;2022-08-01T13:02:50;32.20;41.80
57857;DHT22;43683;48.650;9.290;2022-08-01T13:05:17;32.40;41.60
57857;DHT22;43683;48.650;9.290;2022-08-01T13:10:10;32.40;41.20
57857;DHT22;43683;48.650;9.290;2022-08-01T13:12:37;32.50;40.90
57857;DHT22;43683;48.650;9.290;2022-08-01T13:15:16;32.20;40.70
57857;DHT22;43683;48.650;9.290;2022-08-01T13:17:41;31.40;41.90
57857;DHT22;43683;48.650;9.290;2022-08-01T13:20:07;30.40;43.00
57857;DHT22;43683;48.650;9.290;2022-08-01T13:22:37;29.70;43.80
57857;DHT22;43683;48.650;9.290;2022-08-01T13:25:13;29.00;44.20
57857;DHT22;43683;48.650;9.290;2022-08-01T13:27:39;28.50;44.50
57857;DHT22;43683;48.650;9.290;2022-08-01T13:30:15;28.10;44.90
57857;DHT22;43683;48.650;9.290;2022-08-01T13:32:41;28.00;44.80
57857;DHT22;43683;48.650;9.290;2022-08-01T13:35:11;27.90;44.90
57857;DHT22;43683;48.650;9.290;2022-08-01T13:37:39;27.90;44.90
57857;DHT22;43683;48.650;9.290;2022-08-01T13:40:05;28.80;44.20
57857;DHT22;43683;48.650;9.290;2022-08-01T13:42:31;30.20;42.70
57857;DHT22;43683;48.650;9.290;2022-08-01T13:44:57;31.50;41.60
57857;DHT22;43683;48.650;9.290;2022-08-01T13:47:23;31.90;40.60
57857;DHT22;43683;48.650;9.290;2022-08-01T13:49:48;31.50;40.80
57857;DHT22;43683;48.650;9.290;2022-08-01T13:52:14;31.20;41.40
57857;DHT22;43683;48.650;9.290;2022-08-01T13:54:39;31.00;41.20
57857;DHT22;43683;48.650;9.290;2022-08-01T13:57:05;30.50;41.70
57857;DHT22;43683;48.650;9.290;2022-08-01T13:59:30;30.10;42.00
57857;DHT22;43683;48.650;9.290;2022-08-01T14:01:56;30.00;42.40
57857;DHT22;43683;48.650;9.290;2022-08-01T14:04:21;30.50;42.40
57857;DHT22;43683;48.650;9.290;2022-08-01T14:06:47;31.20;41.90
57857;DHT22;43683;48.650;9.290;2022-08-01T14:09:13;30.50;43.30
57857;DHT22;43683;48.650;9.290;2022-08-01T14:11:42;30.40;42.80
57857;DHT22;43683;48.650;9.290;2022-08-01T14:14:07;30.50;42.70
57857;DHT22;43683;48.650;9.290;2022-08-01T14:16:33;31.50;41.70
57857;DHT22;43683;48.650;9.290;2022-08-01T14:18:59;32.20;40.80
57857;DHT22;43683;48.650;9.290;2022-08-01T14:21:24;32.00;40.30
57857;DHT22;43683;48.650;9.290;2022-08-01T14:23:50;31.80;40.30
57857;DHT22;43683;48.650;9.290;2022-08-01T14:26:16;31.60;40.50
57857;DHT22;43683;48.650;9.290;2022-08-01T14:28:41;31.10;41.10
57857;DHT22;43683;48.650;9.290;2022-08-01T14:31:07;30.60;41.40
57857;DHT22;43683;48.650;9.290;2022-08-01T14:33:33;30.10;42.20
57857;DHT22;43683;48.650;9.290;2022-08-01T14:35:59;29.40;42.70
57857;DHT22;43683;48.650;9.290;2022-08-01T14:38:24;28.80;43.40
57857;DHT22;43683;48.650;9.290;2022-08-01T14:40:50;28.40;44.50
57857;DHT22;43683;48.650;9.290;2022-08-01T14:43:19;26.90;46.70
57857;DHT22;43683;48.650;9.290;2022-08-01T14:45:45;26.30;48.10
57857;DHT22;43683;48.650;9.290;2022-08-01T14:48:10;26.10;48.60
57857;DHT22;43683;48.650;9.290;2022-08-01T14:50:36;26.00;48.80
57857;DHT22;43683;48.650;9.290;2022-08-01T14:53:02;25.90;48.60
57857;DHT22;43683;48.650;9.290;2022-08-01T14:55:28;25.90;48.70
57857;DHT22;43683;48.650;9.290;2022-08-01T14:57:53;25.90;48.60
57857;DHT22;43683;48.650;9.290;2022-08-01T15:00:19;25.90;48.30
57857;DHT22;43683;48.650;9.290;2022-08-01T15:02:45;26.10;48.70
57857;DHT22;43683;48.650;9.290;2022-08-01T15:05:11;26.20;48.40
57857;DHT22;43683;48.650;9.290;2022-08-01T15:07:37;26.50;48.00
57857;DHT22;43683;48.650;9.290;2022-08-01T15:10:04;26.80;47.40
57857;DHT22;43683;48.650;9.290;2022-08-01T15:12:31;27.10;47.00
57857;DHT22;43683;48.650;9.290;2022-08-01T15:14:56;27.30;46.90
57857;DHT22;43683;48.650;9.290;2022-08-01T15:17:27;27.30;46.90
57857;DHT22;43683;48.650;9.290;2022-08-01T15:19:59;27.30;46.90
57857;DHT22;43683;48.650;9.290;2022-08-01T15:22:26;27.40;47.00
57857;DHT22;43683;48.650;9.290;2022-08-01T15:24:52;27.40;46.70
57857;DHT22;43683;48.650;9.290;2022-08-01T15:27:18;27.40;46.70
57857;DHT22;43683;48.650;9.290;2022-08-01T15:29:44;27.40;46.80
57857;DHT22;43683;48.650;9.290;2022-08-01T15:32:10;27.40;46.90
57857;DHT22;43683;48.650;9.290;2022-08-01T15:34:37;27.40;47.00
57857;DHT22;43683;48.650;9.290;2022-08-01T15:37:03;27.30;47.10
57857;DHT22;43683;48.650;9.290;2022-08-01T15:39:30;27.20;47.20
57857;DHT22;43683;48.650;9.290;2022-08-01T15:42:05;27.20;47.10
57857;DHT22;43683;48.650;9.290;2022-08-01T15:44:32;27.10;47.00
57857;DHT22;43683;48.650;9.290;2022-08-01T15:46:59;27.00;47.00
57857;DHT22;43683;48.650;9.290;2022-08-01T15:49:25;27.00;46.90
57857;DHT22;43683;48.650;9.290;2022-08-01T15:51:50;27.10;46.80
57857;DHT22;43683;48.650;9.290;2022-08-01T15:54:16;27.20;46.50
57857;DHT22;43683;48.650;9.290;2022-08-01T15:56:42;27.30;46.40
57857;DHT22;43683;48.650;9.290;2022-08-01T15:59:08;27.40;46.20
57857;DHT22;43683;48.650;9.290;2022-08-01T16:01:34;27.40;46.60
57857;DHT22;43683;48.650;9.290;2022-08-01T16:04:00;27.40;47.70
57857;DHT22;43683;48.650;9.290;2022-08-01T16:06:26;27.40;48.40